Main page
METAR-TAF:

METAR-TAF

Airports :

Zvartnots International Airport

Yerevan, Armenia

latitude: 40-08-50N, longitude: 044-23-45E, elevation: 865 m

Current weather observation

The report was made 31 minutes ago, at 17:30 UTC
Wind 2 kt from the North/Northeast
Temperature -4°C
Humidity 63%
Pressure 1026 hPa
Visibility: 6000 m

METAR: UDYZ 271730Z 02002KT 6000 NSC M04/M10 Q1026 R09/010070 NOSIG

Time: 22:01 (18:01 UTC)

Forecast

The report was made 56 minutes ago, at 17:05 UTC
Forecast valid from 27 at 18 UTC to 28 at 18 UTC
Wind 4 kt from variable directions
Visibility: 6000 m
Temporary
from 27 at 21 UTC to 28 at 06 UTC
Visibility: 2000 m
mist

TAF: UDYZ 271705Z 2718/2818 VRB04KT 6000 NSC TEMPO 2721/2806 2000 BR

Weather observations and forecasts of more than 4000 airports (METAR and TAF reports).

The available stations are represented by yellow and red dots on the map.

Hover mouse over dot to see the name of the station.

Then click to see weather observations and forecasts.

To change the map : click on the green buttons with a black cross to zoom in, on the green button with a dash to zoom out, or on the green arrows for adjacent maps.


METAR-TAF: